LFPM 031830Z AUTO 18010KT 6000 RA OVC005/// ///TCU 05/04 Q1005

Nombre de NOTAM : 1    
LFFA-P3194/21 
Q) LFFF/QOBCE/IV/  M/ A/000/999/4849N00237E005
A) LFPL  LOGNES EMERAINVILLE
B) 2021 Oct 29  08:48 C) 2022 Jan 31  23:59
E) ARBRES IMPACTANT LES SERVITUDES AERONAUTIQUES A PROXIMITE THR 26
 NON REVETU :
-PSN : 484911N 0023802E
       484911N 0023805E
       484911N 0023801E
-ALT AU SOMMET : 422FT
-HAUTEUR : 68FT
-BALISAGE : NIL.
  © SIA.